Time;durP1;ratioP1;P1;durP2;ratioP2;P2;SDS_P1;SDS_P2;PMS_P1;PMS_P2;Temp;Humidity;BMP_temperature;BMP_pressure;BME280_temperature;BME280_humidity;BME280_pressure;Samples;Min_cycle;Max_cycle;Signal;HPM_P1;HPM_P2
2021/01/18 00:01:39;;;;;;;216.15;117.35;;;-11.70;92.40;;;;;;5010198;28;20205;-52
2021/01/18 00:04:06;;;;;;;216.45;113.25;;;-11.70;92.30;;;;;;5010540;28;20229;-52
2021/01/18 00:06:33;;;;;;;221.60;116.03;;;-11.70;92.10;;;;;;5018674;28;20295;-55
2021/01/18 00:09:00;;;;;;;237.45;122.65;;;-11.80;92.20;;;;;;5011481;28;20496;-51
2021/01/18 00:11:27;;;;;;;209.38;111.05;;;-11.90;92.40;;;;;;5011021;28;20240;-54
2021/01/18 00:13:54;;;;;;;231.77;118.80;;;-11.90;92.40;;;;;;5009601;28;20201;-51
2021/01/18 00:16:22;;;;;;;234.95;125.03;;;-11.90;92.40;;;;;;5011827;28;20499;-54
2021/01/18 00:18:50;;;;;;;244.10;127.28;;;-11.90;92.60;;;;;;5015079;28;20210;-53
2021/01/18 00:21:16;;;;;;;243.48;125.00;;;-12.00;92.80;;;;;;5011853;28;20277;-53
2021/01/18 00:23:44;;;;;;;216.57;116.32;;;-12.10;92.80;;;;;;5008416;28;20256;-50
2021/01/18 00:26:11;;;;;;;244.13;123.30;;;-11.90;92.80;;;;;;5011395;28;20240;-50
2021/01/18 00:28:41;;;;;;;242.65;124.13;;;-11.90;92.60;;;;;;5011880;28;20205;-51
2021/01/18 00:31:11;;;;;;;234.88;121.22;;;-11.90;92.60;;;;;;5007586;28;20484;-53
2021/01/18 00:33:38;;;;;;;233.55;121.38;;;-12.10;92.60;;;;;;5008222;28;20220;-55
2021/01/18 00:36:06;;;;;;;225.77;121.25;;;-12.00;92.80;;;;;;5008606;28;20216;-54
2021/01/18 00:38:33;;;;;;;207.85;115.85;;;-12.00;92.70;;;;;;5015205;28;20220;-52
2021/01/18 00:41:00;;;;;;;231.48;120.43;;;-12.10;92.80;;;;;;5011078;28;20213;-51
2021/01/18 00:43:29;;;;;;;228.70;118.60;;;-12.10;92.80;;;;;;5010038;28;20499;-53
2021/01/18 00:45:56;;;;;;;231.85;118.15;;;-12.20;92.80;;;;;;5012415;28;20250;-52
2021/01/18 00:48:24;;;;;;;207.40;114.15;;;-12.10;93.00;;;;;;5019187;28;20209;-53
2021/01/18 00:50:51;;;;;;;231.70;118.47;;;-12.10;92.90;;;;;;5004828;28;20213;-50
2021/01/18 00:53:18;;;;;;;221.32;116.05;;;-12.10;93.00;;;;;;5014140;28;20210;-54
2021/01/18 00:55:45;;;;;;;242.55;122.63;;;-12.00;93.00;;;;;;5014301;28;20220;-51
2021/01/18 00:58:13;;;;;;;224.43;113.85;;;-12.00;92.80;;;;;;5006064;28;20204;-52
2021/01/18 01:00:39;;;;;;;216.70;110.80;;;-12.20;92.80;;;;;;5017974;28;20260;-51
2021/01/18 01:03:06;;;;;;;247.02;116.05;;;-12.20;92.90;;;;;;5003501;28;20240;-54
2021/01/18 01:05:33;;;;;;;232.35;118.50;;;-12.20;92.90;;;;;;5010518;28;20236;-54
2021/01/18 01:08:00;;;;;;;244.07;119.63;;;-12.30;92.90;;;;;;5019243;28;20208;-51
2021/01/18 01:10:33;;;;;;;224.75;116.60;;;-12.30;93.10;;;;;;5008368;28;20620;-53
2021/01/18 01:13:08;;;;;;;234.10;115.45;;;-12.30;93.20;;;;;;5018668;28;20268;-52
2021/01/18 01:15:35;;;;;;;229.57;115.57;;;-12.30;93.10;;;;;;5019842;28;20291;-50
2021/01/18 01:18:03;;;;;;;241.75;117.03;;;-12.30;93.00;;;;;;5008333;28;20216;-49
2021/01/18 01:20:30;;;;;;;230.45;118.93;;;-12.40;93.10;;;;;;5014139;28;20221;-52
2021/01/18 01:22:57;;;;;;;231.43;114.05;;;-12.40;92.80;;;;;;5025657;28;20715;-54
2021/01/18 01:25:26;;;;;;;247.75;117.65;;;-12.40;93.10;;;;;;5019181;28;20271;-55
2021/01/18 01:27:53;;;;;;;239.27;120.43;;;-12.30;93.10;;;;;;5013234;28;20388;-51
2021/01/18 01:30:23;;;;;;;219.75;117.03;;;-12.30;92.90;;;;;;5015615;28;20209;-53
2021/01/18 01:32:51;;;;;;;230.80;111.68;;;-12.40;92.90;;;;;;5010549;28;20398;-54
2021/01/18 01:35:21;;;;;;;241.15;116.68;;;-12.40;93.00;;;;;;5016739;28;20215;-51
2021/01/18 01:37:48;;;;;;;231.55;115.18;;;-12.40;93.00;;;;;;5015602;28;20300;-52
2021/01/18 01:40:17;;;;;;;211.48;109.63;;;-12.40;92.90;;;;;;5017836;28;20220;-50
2021/01/18 01:42:44;;;;;;;238.07;116.88;;;-12.40;93.00;;;;;;5017299;28;20208;-51
2021/01/18 01:45:13;;;;;;;229.85;112.57;;;-12.50;93.00;;;;;;5014475;28;20460;-51
2021/01/18 01:47:44;;;;;;;223.77;112.13;;;-12.40;93.10;;;;;;5012767;28;20280;-49
2021/01/18 01:50:22;;;;;;;204.90;105.43;;;-12.50;93.00;;;;;;5018330;28;20393;-50
2021/01/18 01:53:10;;;;;;;203.23;106.43;;;-12.40;93.00;;;;;;5009521;28;20205;-51
2021/01/18 01:55:38;;;;;;;210.20;108.47;;;-12.40;92.90;;;;;;5009924;28;20206;-53
2021/01/18 01:58:07;;;;;;;212.25;102.07;;;-12.40;92.60;;;;;;5005493;28;20213;-49
2021/01/18 02:00:39;;;;;;;206.88;108.50;;;-12.50;92.40;;;;;;5015371;28;20212;-51
2021/01/18 02:03:41;;;;;;;196.65;97.95;;;-12.60;92.70;;;;;;5011078;28;20245;-51
2021/01/18 02:06:09;;;;;;;195.77;97.63;;;-12.70;92.90;;;;;;5010986;28;20232;-50
2021/01/18 02:08:37;;;;;;;190.68;96.05;;;-12.70;92.90;;;;;;5020484;28;20209;-50
2021/01/18 02:11:05;;;;;;;178.68;97.88;;;-12.70;92.90;;;;;;5006022;28;20233;-50
2021/01/18 02:14:00;;;;;;;195.23;100.07;;;-12.60;92.80;;;;;;5016516;28;20224;-50
2021/01/18 02:16:43;;;;;;;200.55;96.55;;;-12.60;92.80;;;;;;5010481;28;20275;-53
2021/01/18 02:19:25;;;;;;;197.27;100.88;;;-12.40;92.70;;;;;;5003034;28;20202;-51
2021/01/18 02:22:09;;;;;;;202.23;106.03;;;-12.50;92.80;;;;;;5001524;28;20389;-50
2021/01/18 02:24:55;;;;;;;189.10;96.15;;;-12.50;92.60;;;;;;5004159;28;20424;-53
2021/01/18 02:27:53;;;;;;;201.40;102.97;;;-12.40;92.70;;;;;;5003359;28;20439;-51
2021/01/18 02:30:32;;;;;;;191.85;98.40;;;-12.20;92.60;;;;;;5013316;28;20217;-52
2021/01/18 02:33:38;;;;;;;181.38;97.32;;;-12.10;92.50;;;;;;5011219;28;20205;-50
2021/01/18 02:36:32;;;;;;;183.23;92.47;;;-11.90;92.20;;;;;;5006387;28;20213;-54
2021/01/18 02:39:19;;;;;;;183.23;93.68;;;-11.00;92.10;;;;;;5011466;28;20207;-54
2021/01/18 02:41:53;;;;;;;185.77;94.45;;;-12.00;91.80;;;;;;5010070;28;20205;-52
2021/01/18 02:44:22;;;;;;;183.00;102.20;;;-12.00;91.80;;;;;;5006613;28;20227;-51
2021/01/18 02:46:50;;;;;;;197.80;99.32;;;-12.00;91.90;;;;;;5014555;28;20243;-53
2021/01/18 02:49:19;;;;;;;177.05;94.97;;;-11.80;91.90;;;;;;5012972;28;20209;-50
2021/01/18 02:52:09;;;;;;;178.30;97.88;;;-11.70;91.70;;;;;;5017552;28;20584;-51
2021/01/18 02:54:35;;;;;;;172.45;94.18;;;-11.80;91.50;;;;;;5006999;28;20223;-50
2021/01/18 02:57:06;;;;;;;183.60;92.53;;;-11.70;91.60;;;;;;5017731;28;20796;-51
2021/01/18 02:59:33;;;;;;;172.10;96.28;;;-11.60;91.70;;;;;;5012499;28;20258;-51
2021/01/18 03:02:32;;;;;;;167.15;92.22;;;-11.40;91.50;;;;;;5011666;28;20392;-50
2021/01/18 03:05:02;;;;;;;181.30;96.93;;;-11.00;91.20;;;;;;5010679;28;20206;-51
2021/01/18 03:07:36;;;;;;;171.43;92.97;;;-11.00;90.10;;;;;;5014645;28;21683;-49
2021/01/18 03:10:12;;;;;;;181.15;90.85;;;-11.10;90.40;;;;;;5007583;28;20437;-51
2021/01/18 03:13:17;;;;;;;150.98;83.85;;;-11.30;90.90;;;;;;5003639;28;20538;-50
2021/01/18 03:15:46;;;;;;;167.63;87.50;;;-11.50;91.10;;;;;;4997543;28;20209;-50
2021/01/18 03:18:17;;;;;;;176.43;83.20;;;-11.40;91.30;;;;;;5015240;28;20216;-53
2021/01/18 03:20:46;;;;;;;161.13;88.20;;;-11.30;91.30;;;;;;5007305;28;20429;-52
2021/01/18 03:23:12;;;;;;;150.07;79.88;;;-11.40;91.00;;;;;;5014499;28;20205;-50
2021/01/18 03:25:55;;;;;;;160.95;84.68;;;-11.60;90.90;;;;;;5017384;28;20215;-53
2021/01/18 03:28:24;;;;;;;155.32;84.30;;;-11.70;91.30;;;;;;4997981;28;20657;-51
2021/01/18 03:30:51;;;;;;;169.68;89.90;;;-11.70;91.50;;;;;;5000483;28;20264;-50
2021/01/18 03:33:24;;;;;;;172.02;91.18;;;-11.70;91.70;;;;;;5029089;28;20693;-50
2021/01/18 03:35:52;;;;;;;176.15;92.50;;;-11.50;91.90;;;;;;5009625;28;20270;-52
2021/01/18 03:38:19;;;;;;;162.82;86.55;;;-11.40;91.70;;;;;;5016350;28;20255;-51
2021/01/18 03:40:46;;;;;;;160.50;85.50;;;-11.40;91.40;;;;;;5016591;28;20211;-51
2021/01/18 03:43:13;;;;;;;188.25;92.95;;;-11.60;91.00;;;;;;5016756;28;20240;-51
2021/01/18 03:45:42;;;;;;;161.85;85.97;;;-11.70;91.20;;;;;;5015829;28;20569;-49
2021/01/18 03:48:11;;;;;;;176.07;89.25;;;-11.80;91.30;;;;;;5017392;28;20205;-50
2021/01/18 03:50:38;;;;;;;158.93;86.07;;;-11.90;91.40;;;;;;5016104;28;20454;-52
2021/01/18 03:53:06;;;;;;;169.45;88.20;;;-11.90;91.60;;;;;;5017291;28;20427;-52
2021/01/18 03:55:33;;;;;;;169.23;86.72;;;-12.00;91.60;;;;;;5016086;28;20299;-51
2021/01/18 03:58:00;;;;;;;165.60;88.22;;;-12.10;91.50;;;;;;5016165;28;20209;-50
2021/01/18 04:00:29;;;;;;;176.93;85.90;;;-11.90;91.80;;;;;;5016878;28;20212;-52
2021/01/18 04:02:56;;;;;;;168.27;85.22;;;-11.80;91.60;;;;;;5003704;28;20225;-52
2021/01/18 04:05:24;;;;;;;170.52;90.85;;;-11.50;91.60;;;;;;5017037;28;20420;-50
2021/01/18 04:07:52;;;;;;;171.70;86.75;;;-11.70;91.30;;;;;;4999443;28;20233;-48
2021/01/18 04:10:26;;;;;;;165.13;88.65;;;-11.60;91.50;;;;;;5030490;28;20208;-49
2021/01/18 04:12:54;;;;;;;174.05;88.50;;;-11.50;91.60;;;;;;5012022;28;20423;-50
2021/01/18 04:15:22;;;;;;;177.55;89.88;;;-11.50;91.60;;;;;;5015575;28;20209;-53
2021/01/18 04:17:51;;;;;;;166.77;86.20;;;-11.40;91.50;;;;;;5017459;28;20214;-52
2021/01/18 04:20:19;;;;;;;163.88;83.38;;;-11.40;91.50;;;;;;5010682;28;20248;-53
2021/01/18 04:22:49;;;;;;;168.38;84.10;;;-11.40;91.40;;;;;;5004555;28;20212;-51
2021/01/18 04:25:17;;;;;;;158.90;82.82;;;-11.30;91.20;;;;;;5018416;28;20215;-52
2021/01/18 04:27:45;;;;;;;163.18;87.13;;;-11.50;91.00;;;;;;5018657;28;20236;-50
2021/01/18 04:30:13;;;;;;;157.32;86.70;;;-10.40;91.60;;;;;;5014002;28;20727;-51
2021/01/18 04:32:40;;;;;;;171.35;87.93;;;-11.30;91.30;;;;;;5000643;28;20260;-52
2021/01/18 04:35:08;;;;;;;182.55;88.97;;;-11.10;91.20;;;;;;5013807;28;20221;-53
2021/01/18 04:37:35;;;;;;;158.95;84.13;;;-10.90;91.00;;;;;;5008212;28;20224;-53
2021/01/18 04:40:02;;;;;;;158.43;88.10;;;-10.90;90.70;;;;;;5005888;28;20193;-51
2021/01/18 04:42:29;;;;;;;157.88;85.78;;;-11.00;90.60;;;;;;5010466;28;20404;-51
2021/01/18 04:44:56;;;;;;;157.68;84.82;;;-11.10;90.70;;;;;;5014288;28;20228;-52
2021/01/18 04:47:27;;;;;;;170.10;91.05;;;-11.10;90.80;;;;;;5008228;28;20294;-52
2021/01/18 04:49:56;;;;;;;162.18;89.78;;;-11.00;91.00;;;;;;5005688;28;20210;-50
2021/01/18 04:52:45;;;;;;;162.57;87.82;;;-11.00;90.80;;;;;;5017572;28;20728;-52
2021/01/18 04:55:31;;;;;;;148.63;86.63;;;-11.00;90.90;;;;;;5019293;28;20205;-52
2021/01/18 04:58:10;;;;;;;163.25;86.20;;;-11.10;90.80;;;;;;5020126;28;20209;-50
2021/01/18 05:00:41;;;;;;;172.45;89.45;;;-11.20;90.50;;;;;;5004969;28;20207;-51
2021/01/18 05:03:09;;;;;;;162.70;84.25;;;-11.20;90.70;;;;;;5020690;28;20224;-50
2021/01/18 05:05:51;;;;;;;167.43;90.78;;;-11.20;90.80;;;;;;5008531;28;20209;-51
2021/01/18 05:08:55;;;;;;;161.07;85.95;;;-11.20;90.90;;;;;;5012625;28;20221;-51
2021/01/18 05:11:21;;;;;;;159.55;81.45;;;-11.10;90.90;;;;;;5001818;28;20447;-49
2021/01/18 05:13:48;;;;;;;161.75;87.63;;;-11.30;90.70;;;;;;5009349;28;20511;-50
2021/01/18 05:16:14;;;;;;;168.77;86.45;;;-11.30;91.10;;;;;;5009379;28;20235;-52
2021/01/18 05:18:42;;;;;;;164.35;85.93;;;-11.30;91.00;;;;;;5018445;28;20229;-50
2021/01/18 05:21:10;;;;;;;175.07;87.95;;;-11.30;91.00;;;;;;5008598;28;20369;-51
2021/01/18 05:23:43;;;;;;;162.95;86.90;;;-11.30;91.00;;;;;;5018811;28;20213;-50
2021/01/18 05:26:25;;;;;;;161.82;84.22;;;-11.20;91.00;;;;;;5007617;28;20229;-52
2021/01/18 05:28:54;;;;;;;177.27;89.90;;;-11.20;90.80;;;;;;5002960;28;20221;-53
2021/01/18 05:31:27;;;;;;;162.00;88.47;;;-11.30;90.80;;;;;;5001636;28;20226;-52
2021/01/18 05:33:54;;;;;;;173.88;86.80;;;-11.30;90.80;;;;;;5001792;28;20210;-51
2021/01/18 05:36:33;;;;;;;164.55;88.60;;;-11.20;91.00;;;;;;5013486;28;20217;-51
2021/01/18 05:39:19;;;;;;;167.30;89.78;;;-11.20;90.90;;;;;;5015243;28;20240;-51
2021/01/18 05:41:47;;;;;;;159.48;84.53;;;-11.20;90.80;;;;;;5010441;28;20272;-49
2021/01/18 05:44:14;;;;;;;178.27;90.45;;;-11.10;90.80;;;;;;5016292;28;20427;-50
2021/01/18 05:46:43;;;;;;;184.75;91.82;;;-11.20;90.70;;;;;;5005796;28;20590;-50
2021/01/18 05:49:19;;;;;;;159.57;86.55;;;-11.20;90.90;;;;;;5013227;28;20206;-51
2021/01/18 05:51:53;;;;;;;167.13;88.60;;;-11.10;91.00;;;;;;5003297;28;20205;-50
2021/01/18 05:54:24;;;;;;;166.25;90.05;;;-11.20;91.00;;;;;;5008037;28;20212;-52
2021/01/18 05:56:55;;;;;;;188.25;94.28;;;-11.10;91.00;;;;;;5005973;28;20237;-51
2021/01/18 05:59:25;;;;;;;162.88;91.18;;;-10.90;90.80;;;;;;5013151;28;20288;-50
2021/01/18 06:01:54;;;;;;;181.00;91.03;;;-10.80;90.60;;;;;;5014183;28;20207;-50
2021/01/18 06:04:30;;;;;;;176.18;93.88;;;-10.80;90.30;;;;;;5012474;28;20641;-49
2021/01/18 06:07:02;;;;;;;168.88;91.78;;;-10.50;90.10;;;;;;5014432;28;20701;-50
2021/01/18 06:09:49;;;;;;;157.13;85.82;;;-10.50;90.30;;;;;;5002451;28;20711;-50
2021/01/18 06:12:24;;;;;;;166.85;87.15;;;-10.50;90.10;;;;;;5004154;28;20268;-52
2021/01/18 06:15:09;;;;;;;182.68;94.32;;;-10.60;89.90;;;;;;5008907;28;20204;-51
2021/01/18 06:17:37;;;;;;;162.73;89.72;;;-10.70;89.90;;;;;;5016764;28;20204;-51
2021/01/18 06:20:06;;;;;;;160.20;87.32;;;-10.70;90.20;;;;;;5017747;28;20267;-50
2021/01/18 06:22:32;;;;;;;159.98;91.03;;;-10.60;90.30;;;;;;5018165;28;20212;-51
2021/01/18 06:25:12;;;;;;;157.65;87.40;;;-10.60;90.20;;;;;;5007587;28;20206;-52
2021/01/18 06:27:39;;;;;;;173.02;94.78;;;-10.50;90.10;;;;;;5016100;28;20266;-53
2021/01/18 06:30:29;;;;;;;177.73;92.47;;;-10.50;90.10;;;;;;5016573;28;20205;-52
2021/01/18 06:33:12;;;;;;;175.10;93.65;;;-10.40;90.10;;;;;;5010859;28;20205;-51
2021/01/18 06:35:39;;;;;;;173.88;94.00;;;-10.40;90.00;;;;;;5021601;28;20614;-52
2021/01/18 06:38:07;;;;;;;171.60;93.78;;;-10.40;90.00;;;;;;5013840;28;20217;-51
2021/01/18 06:40:35;;;;;;;181.90;95.00;;;-10.40;90.00;;;;;;5005096;28;20213;-51
2021/01/18 06:43:04;;;;;;;184.07;97.20;;;-9.90;89.80;;;;;;5012623;28;20519;-52
2021/01/18 06:45:32;;;;;;;168.85;89.20;;;-10.50;90.00;;;;;;5000159;28;20212;-51
2021/01/18 06:48:00;;;;;;;174.50;91.80;;;-10.50;90.00;;;;;;5004032;28;20233;-53
2021/01/18 06:50:36;;;;;;;166.88;92.15;;;-10.40;90.00;;;;;;5003289;28;20225;-52
2021/01/18 06:53:16;;;;;;;162.60;87.25;;;-10.30;90.30;;;;;;4990823;28;20393;-51
2021/01/18 06:56:16;;;;;;;178.52;97.63;;;-10.40;90.00;;;;;;4997825;28;20217;-50
2021/01/18 06:58:51;;;;;;;178.02;94.68;;;-10.40;90.20;;;;;;4998586;28;20255;-52
2021/01/18 07:01:30;;;;;;;166.50;90.03;;;-10.10;90.50;;;;;;5003333;28;20445;-51
2021/01/18 07:04:13;;;;;;;165.73;88.55;;;-10.10;90.10;;;;;;4988307;28;20238;-50
2021/01/18 07:06:56;;;;;;;150.10;87.60;;;-10.00;90.20;;;;;;4984077;28;20416;-53
2021/01/18 07:09:27;;;;;;;168.00;89.63;;;-9.90;90.40;;;;;;4989131;28;20308;-50
2021/01/18 07:12:05;;;;;;;181.00;94.07;;;-9.80;90.40;;;;;;4982383;28;20513;-52
2021/01/18 07:14:35;;;;;;;179.30;93.53;;;-8.60;90.40;;;;;;5001936;28;20298;-50
2021/01/18 07:17:07;;;;;;;170.02;94.47;;;-9.70;89.90;;;;;;4998077;28;20217;-52
2021/01/18 07:19:42;;;;;;;182.10;95.97;;;-9.60;89.80;;;;;;4996407;28;20444;-51
2021/01/18 07:22:34;;;;;;;170.43;93.18;;;-9.30;90.00;;;;;;4995333;28;20257;-49
2021/01/18 07:25:23;;;;;;;171.70;92.30;;;-9.30;88.70;;;;;;4993813;28;20511;-51
2021/01/18 07:27:53;;;;;;;179.35;94.00;;;-9.50;88.70;;;;;;4983128;28;20242;-51
2021/01/18 07:30:21;;;;;;;171.93;91.28;;;-9.60;88.10;;;;;;4993440;28;20205;-50
2021/01/18 07:32:48;;;;;;;179.27;97.43;;;-9.50;89.50;;;;;;4987429;28;20277;-52
2021/01/18 07:35:15;;;;;;;177.35;98.47;;;-9.30;89.30;;;;;;4978512;28;20198;-52
2021/01/18 07:37:41;;;;;;;194.65;98.93;;;-9.10;89.70;;;;;;4990124;28;20333;-51
2021/01/18 07:40:10;;;;;;;175.18;100.53;;;-8.90;88.50;;;;;;4991709;28;20209;-50
2021/01/18 07:42:38;;;;;;;168.43;96.65;;;-8.60;88.30;;;;;;4997759;28;20276;-51
2021/01/18 07:45:11;;;;;;;192.18;96.75;;;-8.50;87.40;;;;;;4977575;28;20210;-51
2021/01/18 07:47:56;;;;;;;167.93;95.25;;;-8.40;87.10;;;;;;4990004;28;20259;-51
2021/01/18 07:50:43;;;;;;;182.23;97.90;;;-8.40;85.70;;;;;;4989727;28;20290;-51
2021/01/18 07:53:17;;;;;;;175.73;94.88;;;-8.40;85.70;;;;;;4994220;28;20214;-50
2021/01/18 07:55:43;;;;;;;182.90;100.30;;;-8.50;85.60;;;;;;4987324;28;20444;-50
2021/01/18 07:58:20;;;;;;;186.27;101.65;;;-8.30;85.90;;;;;;4990666;28;20209;-53
2021/01/18 08:00:51;;;;;;;170.35;98.07;;;-7.60;86.50;;;;;;4982094;28;20213;-50
2021/01/18 08:03:23;;;;;;;182.30;101.00;;;-8.10;86.30;;;;;;4989305;28;20284;-49
2021/01/18 08:06:21;;;;;;;173.85;99.60;;;-8.40;85.50;;;;;;4986226;28;20217;-53
2021/01/18 08:09:34;;;;;;;176.80;99.15;;;-8.50;86.80;;;;;;4996161;28;20214;-51
2021/01/18 08:17:10;;;;;;;174.40;100.80;;;-8.60;87.80;;;;;;4948209;28;20587;-48
2021/01/18 08:20:15;;;;;;;171.85;99.20;;;-8.60;88.30;;;;;;4950933;28;20587;-49
2021/01/18 08:22:44;;;;;;;164.32;91.97;;;-8.40;87.50;;;;;;4989512;28;20202;-49
2021/01/18 08:25:44;;;;;;;163.52;94.85;;;-8.20;87.00;;;;;;4994528;28;20544;-50
2021/01/18 08:28:33;;;;;;;174.68;93.15;;;-7.60;84.60;;;;;;4996121;28;20210;-50
2021/01/18 08:31:17;;;;;;;175.77;92.05;;;-7.60;85.10;;;;;;4999023;28;20209;-51
2021/01/18 08:33:45;;;;;;;170.57;94.47;;;-7.40;83.90;;;;;;4988966;28;20488;-50
2021/01/18 08:36:31;;;;;;;165.07;94.15;;;-7.40;83.70;;;;;;4987803;28;20547;-51
2021/01/18 08:39:11;;;;;;;167.45;91.35;;;-7.30;83.00;;;;;;4988016;28;20245;-52
2021/01/18 08:41:47;;;;;;;158.98;88.30;;;-7.30;83.60;;;;;;4983203;28;20210;-50
2021/01/18 08:44:31;;;;;;;158.10;90.15;;;-7.30;82.80;;;;;;4999730;28;20327;-49
2021/01/18 08:47:03;;;;;;;168.30;88.90;;;-7.00;83.40;;;;;;4987372;28;20284;-51
2021/01/18 08:49:33;;;;;;;167.48;92.43;;;-7.00;82.50;;;;;;4997559;28;20210;-50
2021/01/18 08:52:01;;;;;;;163.13;88.10;;;-7.00;82.70;;;;;;4993397;28;20205;-51
2021/01/18 08:54:31;;;;;;;161.93;87.93;;;-6.40;83.00;;;;;;4992550;28;20301;-49
2021/01/18 08:57:25;;;;;;;177.32;87.15;;;-6.90;83.20;;;;;;4990227;28;20199;-52
2021/01/18 09:00:01;;;;;;;165.88;88.45;;;-6.80;83.90;;;;;;4984804;28;20213;-51
2021/01/18 09:02:29;;;;;;;172.73;91.47;;;-6.50;82.50;;;;;;4988589;28;20698;-50
2021/01/18 09:05:18;;;;;;;168.02;88.00;;;-6.20;81.80;;;;;;4998008;28;20198;-49
2021/01/18 09:07:47;;;;;;;180.63;86.07;;;-5.90;79.90;;;;;;4986802;28;20418;-50
2021/01/18 09:10:21;;;;;;;164.07;93.22;;;-6.00;80.00;;;;;;4986267;28;20248;-49
2021/01/18 09:13:01;;;;;;;182.02;95.25;;;-5.70;80.10;;;;;;4994613;28;20582;-50
2021/01/18 09:15:28;;;;;;;187.05;97.43;;;-5.70;79.60;;;;;;4994086;28;20854;-49
2021/01/18 09:17:55;;;;;;;278.63;129.13;;;-5.70;79.40;;;;;;4998161;28;20237;-51
2021/01/18 09:20:22;;;;;;;194.63;100.65;;;-5.80;79.90;;;;;;4995621;28;20206;-52
2021/01/18 09:22:49;;;;;;;179.48;92.93;;;-5.70;81.00;;;;;;4981365;28;20205;-49
2021/01/18 09:25:16;;;;;;;285.65;129.75;;;-5.80;79.80;;;;;;5018834;28;20209;-50
2021/01/18 09:27:43;;;;;;;243.32;118.88;;;-5.90;80.80;;;;;;4991292;28;20241;-50
2021/01/18 09:30:17;;;;;;;312.55;145.57;;;-5.80;80.70;;;;;;4984332;28;20214;-49
2021/01/18 09:33:01;;;;;;;293.35;132.18;;;-5.80;80.50;;;;;;4982890;28;20211;-51
2021/01/18 09:35:30;;;;;;;223.40;110.00;;;-5.30;79.30;;;;;;4985933;28;20256;-53
2021/01/18 09:37:58;;;;;;;197.95;107.75;;;-5.30;80.00;;;;;;4986267;28;20217;-52
2021/01/18 09:40:34;;;;;;;228.20;115.05;;;-4.80;77.60;;;;;;4983363;28;20205;-49
2021/01/18 09:43:01;;;;;;;202.80;107.65;;;-2.50;79.80;;;;;;4983805;28;20210;-50
2021/01/18 09:45:28;;;;;;;180.75;92.35;;;;;;;;;;4993817;28;20216;-49
2021/01/18 09:48:16;;;;;;;204.77;93.95;;;;;;;;;;4984418;28;20561;-52
2021/01/18 09:50:43;;;;;;;203.02;99.05;;;-4.30;74.10;;;;;;4991215;28;20213;-51
2021/01/18 09:53:10;;;;;;;173.82;91.10;;;-4.40;75.00;;;;;;4985241;28;20210;-50
2021/01/18 09:55:45;;;;;;;191.60;95.18;;;-4.30;76.70;;;;;;4990269;28;20504;-48
2021/01/18 09:58:18;;;;;;;193.65;95.20;;;-4.40;76.30;;;;;;4987273;28;20528;-51
2021/01/18 10:00:47;;;;;;;198.32;101.70;;;-4.30;77.30;;;;;;4989504;28;20212;-49
2021/01/18 10:03:34;;;;;;;184.95;97.57;;;-4.00;76.70;;;;;;4985924;28;20296;-50
2021/01/18 10:06:04;;;;;;;176.35;88.78;;;-4.00;76.00;;;;;;4996649;28;20213;-50
2021/01/18 10:08:32;;;;;;;190.40;93.45;;;-3.80;75.60;;;;;;4988727;28;20210;-52
2021/01/18 10:11:00;;;;;;;174.63;85.57;;;;;;;;;;5003147;28;20305;-49
2021/01/18 10:13:28;;;;;;;178.68;88.13;;;-3.70;73.90;;;;;;5004787;28;20206;-50
2021/01/18 10:15:55;;;;;;;166.57;79.90;;;;;;;;;;5012594;28;20487;-50
2021/01/18 10:18:33;;;;;;;165.73;88.32;;;-4.30;76.30;;;;;;5011304;28;20239;-49
2021/01/18 10:21:02;;;;;;;160.52;84.30;;;-4.00;76.00;;;;;;4988033;28;20218;-51
2021/01/18 10:23:33;;;;;;;161.43;83.90;;;-3.20;77.40;;;;;;4996097;28;20591;-51
2021/01/18 10:26:18;;;;;;;168.30;85.15;;;-4.10;76.50;;;;;;4998319;28;20329;-50
2021/01/18 10:28:53;;;;;;;156.48;78.95;;;-4.20;76.70;;;;;;4996982;28;20272;-51
2021/01/18 10:31:25;;;;;;;167.07;87.05;;;-4.10;77.60;;;;;;4997564;28;20205;-49
2021/01/18 10:34:08;;;;;;;176.57;94.60;;;-3.60;77.90;;;;;;5000199;28;20503;-51
2021/01/18 10:36:35;;;;;;;175.40;91.03;;;-3.60;75.30;;;;;;4999000;28;20214;-49
2021/01/18 10:39:03;;;;;;;159.52;84.15;;;-2.90;76.80;;;;;;4998673;28;20524;-51
2021/01/18 10:41:32;;;;;;;154.65;81.78;;;-3.60;77.30;;;;;;4998452;28;20217;-49
2021/01/18 10:44:14;;;;;;;158.57;78.65;;;-3.40;75.80;;;;;;4995169;28;20213;-51
2021/01/18 10:46:48;;;;;;;152.43;74.97;;;-3.70;74.70;;;;;;5004718;28;20233;-52
2021/01/18 10:49:26;;;;;;;161.35;78.47;;;-3.80;76.10;;;;;;4997141;28;20633;-50
2021/01/18 10:52:02;;;;;;;150.15;77.95;;;-3.80;76.90;;;;;;4998813;28;20209;-49
2021/01/18 10:54:28;;;;;;;166.05;81.95;;;-3.80;77.20;;;;;;4994520;28;20224;-51
2021/01/18 10:56:57;;;;;;;177.63;82.20;;;-3.90;76.70;;;;;;4998680;28;20216;-51
2021/01/18 10:59:24;;;;;;;156.15;82.25;;;-2.40;78.70;;;;;;5005201;28;20280;-51
2021/01/18 11:01:58;;;;;;;148.55;79.53;;;-3.70;77.30;;;;;;4996189;28;20245;-52
2021/01/18 11:04:27;;;;;;;157.52;80.22;;;-3.90;78.20;;;;;;4993213;28;20260;-51
2021/01/18 11:06:56;;;;;;;160.82;78.28;;;-4.00;78.50;;;;;;4994169;28;20238;-50
2021/01/18 11:09:33;;;;;;;156.82;77.65;;;-3.70;79.10;;;;;;4994831;28;20217;-53
2021/01/18 11:12:01;;;;;;;171.57;87.15;;;-4.00;78.80;;;;;;4991887;28;20233;-51
2021/01/18 11:14:29;;;;;;;149.63;72.05;;;-3.60;78.80;;;;;;4995997;28;20213;-51
2021/01/18 11:17:01;;;;;;;145.02;74.53;;;-2.80;78.30;;;;;;4996346;28;20523;-50
2021/01/18 11:19:29;;;;;;;156.52;76.20;;;-3.30;78.20;;;;;;4993677;28;20209;-51
2021/01/18 11:21:56;;;;;;;150.10;72.60;;;-2.40;77.70;;;;;;4993083;28;20206;-49
2021/01/18 11:24:23;;;;;;;137.90;74.05;;;-2.00;77.70;;;;;;4996074;28;20335;-49
2021/01/18 11:26:51;;;;;;;157.80;82.25;;;-2.90;77.10;;;;;;4988271;28;20531;-50
2021/01/18 11:29:19;;;;;;;155.70;75.57;;;-2.80;76.80;;;;;;4997948;28;20301;-50
2021/01/18 11:32:06;;;;;;;130.35;68.15;;;-2.90;75.90;;;;;;4994054;28;20255;-52
2021/01/18 11:34:42;;;;;;;121.88;61.63;;;-2.60;75.70;;;;;;4998473;28;20317;-50
2021/01/18 11:37:10;;;;;;;139.88;66.22;;;-2.50;74.30;;;;;;4996332;28;20209;-50
2021/01/18 11:39:38;;;;;;;154.77;69.72;;;-2.90;73.60;;;;;;4998753;28;20205;-51
2021/01/18 11:42:06;;;;;;;145.43;69.45;;;-2.80;74.90;;;;;;4996747;28;20244;-51
2021/01/18 11:44:36;;;;;;;140.85;71.60;;;-2.70;75.00;;;;;;4997341;28;20355;-51
2021/01/18 11:47:03;;;;;;;137.63;59.22;;;-2.70;76.20;;;;;;4996906;28;20225;-51
2021/01/18 11:49:30;;;;;;;138.15;65.25;;;-2.30;75.00;;;;;;4994124;28;20514;-50
2021/01/18 11:51:59;;;;;;;137.07;62.50;;;-2.20;75.90;;;;;;4997199;28;20213;-53
2021/01/18 11:54:29;;;;;;;138.80;70.30;;;-2.10;74.30;;;;;;4997158;28;20206;-50
2021/01/18 11:56:56;;;;;;;154.27;72.93;;;-2.10;74.30;;;;;;4997239;28;20524;-50
2021/01/18 11:59:22;;;;;;;149.10;65.15;;;-2.40;74.50;;;;;;4996259;28;20209;-51
2021/01/18 12:01:50;;;;;;;146.55;66.78;;;-2.40;75.20;;;;;;4990674;28;20229;-50
2021/01/18 12:04:17;;;;;;;135.85;64.75;;;-2.40;75.80;;;;;;4991489;28;20491;-51
2021/01/18 12:06:44;;;;;;;125.00;64.28;;;-2.60;75.60;;;;;;4989868;28;20491;-50
2021/01/18 12:09:10;;;;;;;137.43;63.78;;;-2.60;75.70;;;;;;4992432;28;20206;-51
2021/01/18 12:11:39;;;;;;;137.20;67.88;;;-2.90;77.20;;;;;;4992732;28;20238;-53
2021/01/18 12:14:06;;;;;;;141.10;71.10;;;-2.90;76.80;;;;;;4995306;28;20210;-49
2021/01/18 12:16:35;;;;;;;137.52;65.00;;;-3.00;76.70;;;;;;4985719;28;20209;-51
2021/01/18 12:19:02;;;;;;;115.32;59.90;;;-3.10;77.30;;;;;;4988385;28;20221;-50
2021/01/18 12:21:28;;;;;;;132.88;66.40;;;-1.20;79.30;;;;;;4985931;28;20230;-49
2021/01/18 12:23:58;;;;;;;142.30;66.45;;;-2.00;78.90;;;;;;4992444;28;20230;-49
2021/01/18 12:26:26;;;;;;;127.00;63.45;;;-3.10;78.00;;;;;;4989965;28;20206;-49
2021/01/18 12:28:53;;;;;;;120.43;60.05;;;-3.30;78.80;;;;;;4997046;28;20213;-52
2021/01/18 12:31:21;;;;;;;121.35;58.58;;;-3.40;79.50;;;;;;4996348;28;20570;-50
2021/01/18 12:33:48;;;;;;;122.68;63.50;;;-3.40;80.80;;;;;;4997465;28;20233;-49
2021/01/18 12:36:15;;;;;;;124.13;63.90;;;-2.30;81.10;;;;;;4996511;28;20362;-52
2021/01/18 12:38:41;;;;;;;128.02;67.13;;;-1.60;81.80;;;;;;4992862;28;20209;-51
2021/01/18 12:41:10;;;;;;;109.97;55.10;;;-2.10;81.60;;;;;;4993272;28;20198;-52
2021/01/18 12:43:37;;;;;;;108.30;59.13;;;-2.70;79.10;;;;;;4985518;28;20534;-50